Terminal Aerodrome Forecast
Issued by NWS

Home | Current Version | Previous Version | Graphics & Text | Print | Product List | Glossary On
Versions: 1 2 3 4 5 6 7 8 9 10 11 12 13 14 15 16
691
FTUS41 KCLE 191013 AAA
TAFFDY
TAF AMD
KFDY 191013Z 1910/2006 36012KT 2SM -SN BKN006
      TEMPO 1911/1912 4SM -SN
     FM191200 33012G20KT P6SM OVC009
     FM191500 32015G25KT P6SM BKN025
     FM191800 32015G25KT P6SM BKN040
     FM192000 32012G20KT P6SM SCT050
     FM192300 32008KT P6SM SCT100=

USA.gov is the U.S. government's official web portal to all federal, state and local government web resources and services.